KVBG/VBG METAR and TAF weather

Enter ICAO airport designator
Station Type Date Time Source
KVBG METAR 2019/04/20 22:58 UTC NOAA

KVBG 202258Z AUTO 34016KT 10SM BKN007 14/12 A3002 RMK AO2 BKN V OVC SLP169 T01430116 $


Station Type Date Time Source
KVBG Decoded METAR 2019/04/20 22:58 UTC NOAA

Lompoc, Vandenberg Air Force Base, CA, United States (KVBG) 34-43-46N 120-34-36W 121M
Apr 20, 2019 - 06:58 PM EDT / 2019.04.20 2258 UTC
Wind: from the NNW (340 degrees) at 18 MPH (16 KT):0
Visibility: 10 mile(s):0
Sky conditions: mostly cloudy
Temperature: 57.7 F (14.3 C)
Dew Point: 52.9 F (11.6 C)
Relative Humidity: 83%
Pressure (altimeter): 30.02 in. Hg (1016 hPa)
ob: KVBG 202258Z AUTO 34016KT 10SM BKN007 14/12 A3002 RMK AO2 BKN V OVC SLP169 T01430116
cycle: 23

Station Type Date Time Source
KVBG TAF 2019/04/19 23:06 UTC NOAA

TAF
AMD KVBG 192303Z 1923/2104 30009KT 4800 BR OVC007 QNH2990INS
BECMG 2002/2003 VRB06KT 3200 BR OVC004 QNH2990INS
BECMG 2004/2005 VRB06KT 1200 BR OVC002 QNH2992INS
BECMG 2005/2006 VRB06KT 0600 DZ FG VV001 QNH2991INS
BECMG 2014/2015 VRB06KT 4800 BR OVC004 QNH2995INS
BECMG 2016/2017 31012KT 8000 BR OVC007 QNH2998INS
BECMG 2018/2019 31012G20KT 9000 BR OVC008 QNH2997INS
BECMG 2101/2102 32015G25KT 8000 BR OVC007 QNH2999INS TX14/1923Z TN10/2012Z LAST NO
AMDS AFT 2000 NEXT 2214

Example: see airport list